sensor_id;sensor_type;location;lat;lon;timestamp;pressure;altitude;pressure_sealevel;temperature;humidity
41230;BME280;26964;50.428;19.218;2023-04-28T00:00:35;1023.7;;;4.3;57.2
41230;BME280;26964;50.428;19.218;2023-04-28T00:01:34;1023.7;;;4.3;57.3
41230;BME280;26964;50.428;19.218;2023-04-28T00:02:34;1023.6;;;4.3;57.3
41230;BME280;26964;50.428;19.218;2023-04-28T00:03:33;1023.6;;;4.3;57.3
41230;BME280;26964;50.428;19.218;2023-04-28T00:04:34;1023.7;;;4.3;57.3
41230;BME280;26964;50.428;19.218;2023-04-28T00:05:34;1023.7;;;4.3;57.3
41230;BME280;26964;50.428;19.218;2023-04-28T00:06:33;1023.6;;;4.3;57.4
41230;BME280;26964;50.428;19.218;2023-04-28T00:07:33;1023.6;;;4.3;57.4
41230;BME280;26964;50.428;19.218;2023-04-28T00:08:34;1023.6;;;4.3;57.4
41230;BME280;26964;50.428;19.218;2023-04-28T00:09:34;1023.6;;;4.3;57.4
41230;BME280;26964;50.428;19.218;2023-04-28T00:10:33;1023.6;;;4.3;57.4
41230;BME280;26964;50.428;19.218;2023-04-28T00:11:34;1023.6;;;4.3;57.4
41230;BME280;26964;50.428;19.218;2023-04-28T00:12:34;1023.6;;;4.3;57.5
41230;BME280;26964;50.428;19.218;2023-04-28T00:13:34;1023.6;;;4.3;57.5
41230;BME280;26964;50.428;19.218;2023-04-28T00:14:34;1023.6;;;4.3;57.5
41230;BME280;26964;50.428;19.218;2023-04-28T00:15:34;1023.5;;;4.2;57.6
41230;BME280;26964;50.428;19.218;2023-04-28T00:16:34;1023.5;;;4.2;57.6
41230;BME280;26964;50.428;19.218;2023-04-28T00:17:33;1023.5;;;4.2;57.7
41230;BME280;26964;50.428;19.218;2023-04-28T00:18:34;1023.6;;;4.2;57.7
41230;BME280;26964;50.428;19.218;2023-04-28T00:19:34;1023.6;;;4.2;57.7
41230;BME280;26964;50.428;19.218;2023-04-28T00:20:33;1023.5;;;4.2;57.7
41230;BME280;26964;50.428;19.218;2023-04-28T00:21:34;1023.6;;;4.2;57.8
41230;BME280;26964;50.428;19.218;2023-04-28T00:22:34;1023.6;;;4.2;57.8
41230;BME280;26964;50.428;19.218;2023-04-28T00:23:34;1023.5;;;4.2;57.8
41230;BME280;26964;50.428;19.218;2023-04-28T00:24:34;1023.5;;;4.2;57.9
41230;BME280;26964;50.428;19.218;2023-04-28T00:25:34;1023.6;;;4.2;57.9
41230;BME280;26964;50.428;19.218;2023-04-28T00:26:34;1023.6;;;4.2;57.9
41230;BME280;26964;50.428;19.218;2023-04-28T00:27:33;1023.6;;;4.2;57.9
41230;BME280;26964;50.428;19.218;2023-04-28T00:28:33;1023.5;;;4.2;57.9
41230;BME280;26964;50.428;19.218;2023-04-28T00:29:34;1023.5;;;4.2;57.9
41230;BME280;26964;50.428;19.218;2023-04-28T00:30:33;1023.5;;;4.2;57.9
41230;BME280;26964;50.428;19.218;2023-04-28T00:31:34;1023.5;;;4.2;58.0
41230;BME280;26964;50.428;19.218;2023-04-28T00:32:34;1023.5;;;4.2;58.0
41230;BME280;26964;50.428;19.218;2023-04-28T00:33:34;1023.6;;;4.2;58.0
41230;BME280;26964;50.428;19.218;2023-04-28T00:34:34;1023.5;;;4.2;58.1
41230;BME280;26964;50.428;19.218;2023-04-28T00:35:34;1023.6;;;4.2;58.1
41230;BME280;26964;50.428;19.218;2023-04-28T00:36:34;1023.5;;;4.2;58.2
41230;BME280;26964;50.428;19.218;2023-04-28T00:37:35;1023.6;;;4.2;58.1
41230;BME280;26964;50.428;19.218;2023-04-28T00:38:33;1023.6;;;4.2;58.2
41230;BME280;26964;50.428;19.218;2023-04-28T00:39:33;1023.6;;;4.2;58.1
41230;BME280;26964;50.428;19.218;2023-04-28T00:40:33;1023.6;;;4.2;58.1
41230;BME280;26964;50.428;19.218;2023-04-28T00:41:45;1023.6;;;4.2;58.2
41230;BME280;26964;50.428;19.218;2023-04-28T00:42:34;1023.5;;;4.2;58.2
41230;BME280;26964;50.428;19.218;2023-04-28T00:44:34;1023.6;;;4.2;58.2
41230;BME280;26964;50.428;19.218;2023-04-28T00:45:34;1023.6;;;4.2;58.2
41230;BME280;26964;50.428;19.218;2023-04-28T00:46:34;1023.5;;;4.2;58.2
41230;BME280;26964;50.428;19.218;2023-04-28T00:47:33;1023.5;;;4.2;58.2
41230;BME280;26964;50.428;19.218;2023-04-28T00:48:34;1023.5;;;4.2;58.3
41230;BME280;26964;50.428;19.218;2023-04-28T00:49:33;1023.5;;;4.2;58.3
41230;BME280;26964;50.428;19.218;2023-04-28T00:50:33;1023.5;;;4.2;58.4
41230;BME280;26964;50.428;19.218;2023-04-28T00:51:41;1023.5;;;4.2;58.4
41230;BME280;26964;50.428;19.218;2023-04-28T00:52:34;1023.5;;;4.2;58.3
41230;BME280;26964;50.428;19.218;2023-04-28T00:53:33;1023.5;;;4.2;58.3
41230;BME280;26964;50.428;19.218;2023-04-28T00:54:33;1023.6;;;4.2;58.3
41230;BME280;26964;50.428;19.218;2023-04-28T00:55:34;1023.5;;;4.1;58.4
41230;BME280;26964;50.428;19.218;2023-04-28T00:56:34;1023.5;;;4.1;58.4
41230;BME280;26964;50.428;19.218;2023-04-28T00:57:36;1023.5;;;4.1;58.4
41230;BME280;26964;50.428;19.218;2023-04-28T00:58:33;1023.6;;;4.1;58.4
41230;BME280;26964;50.428;19.218;2023-04-28T00:59:34;1023.5;;;4.1;58.4
41230;BME280;26964;50.428;19.218;2023-04-28T01:00:33;1023.6;;;4.1;58.4
41230;BME280;26964;50.428;19.218;2023-04-28T01:01:34;1023.6;;;4.1;58.5
41230;BME280;26964;50.428;19.218;2023-04-28T01:02:34;1023.6;;;4.1;58.5
41230;BME280;26964;50.428;19.218;2023-04-28T01:03:34;1023.6;;;4.1;58.5
41230;BME280;26964;50.428;19.218;2023-04-28T01:04:34;1023.6;;;4.1;58.5
41230;BME280;26964;50.428;19.218;2023-04-28T01:05:33;1023.6;;;4.1;58.5
41230;BME280;26964;50.428;19.218;2023-04-28T01:06:34;1023.6;;;4.1;58.5
41230;BME280;26964;50.428;19.218;2023-04-28T01:07:33;1023.6;;;4.1;58.5
41230;BME280;26964;50.428;19.218;2023-04-28T01:08:34;1023.6;;;4.1;58.5
41230;BME280;26964;50.428;19.218;2023-04-28T01:09:34;1023.6;;;4.1;58.6
41230;BME280;26964;50.428;19.218;2023-04-28T01:10:34;1023.6;;;4.1;58.6
41230;BME280;26964;50.428;19.218;2023-04-28T01:11:34;1023.6;;;4.1;58.6
41230;BME280;26964;50.428;19.218;2023-04-28T01:12:33;1023.5;;;4.1;58.6
41230;BME280;26964;50.428;19.218;2023-04-28T01:13:34;1023.6;;;4.1;58.7
41230;BME280;26964;50.428;19.218;2023-04-28T01:14:34;1023.6;;;4.1;58.7
41230;BME280;26964;50.428;19.218;2023-04-28T01:15:33;1023.6;;;4.1;58.7
41230;BME280;26964;50.428;19.218;2023-04-28T01:16:33;1023.6;;;4.1;58.7
41230;BME280;26964;50.428;19.218;2023-04-28T01:17:34;1023.5;;;4.0;58.7
41230;BME280;26964;50.428;19.218;2023-04-28T01:18:34;1023.6;;;4.0;58.7
41230;BME280;26964;50.428;19.218;2023-04-28T01:19:34;1023.6;;;4.0;58.7
41230;BME280;26964;50.428;19.218;2023-04-28T01:20:35;1023.6;;;4.0;58.8
41230;BME280;26964;50.428;19.218;2023-04-28T01:21:57;1023.6;;;4.0;58.8
41230;BME280;26964;50.428;19.218;2023-04-28T01:22:34;1023.5;;;4.0;58.8
41230;BME280;26964;50.428;19.218;2023-04-28T01:23:33;1023.6;;;4.0;58.8
41230;BME280;26964;50.428;19.218;2023-04-28T01:24:34;1023.6;;;4.0;58.8
41230;BME280;26964;50.428;19.218;2023-04-28T01:25:34;1023.6;;;4.0;58.8
41230;BME280;26964;50.428;19.218;2023-04-28T01:26:34;1023.6;;;4.0;58.8
41230;BME280;26964;50.428;19.218;2023-04-28T01:27:34;1023.6;;;4.0;58.8
41230;BME280;26964;50.428;19.218;2023-04-28T01:29:34;1023.6;;;4.0;58.8
41230;BME280;26964;50.428;19.218;2023-04-28T01:30:34;1023.6;;;4.0;58.9
41230;BME280;26964;50.428;19.218;2023-04-28T01:31:34;1023.5;;;4.0;58.9
41230;BME280;26964;50.428;19.218;2023-04-28T01:32:34;1023.6;;;4.0;58.9
41230;BME280;26964;50.428;19.218;2023-04-28T01:33:34;1023.6;;;4.0;58.8
41230;BME280;26964;50.428;19.218;2023-04-28T01:34:33;1023.5;;;4.0;58.9
41230;BME280;26964;50.428;19.218;2023-04-28T01:35:34;1023.5;;;4.0;58.9
41230;BME280;26964;50.428;19.218;2023-04-28T01:36:34;1023.5;;;4.0;58.9
41230;BME280;26964;50.428;19.218;2023-04-28T01:37:34;1023.6;;;4.0;58.9
41230;BME280;26964;50.428;19.218;2023-04-28T01:38:33;1023.5;;;4.1;58.9
41230;BME280;26964;50.428;19.218;2023-04-28T01:39:34;1023.6;;;4.1;58.9
41230;BME280;26964;50.428;19.218;2023-04-28T01:40:34;1023.5;;;4.1;58.9
41230;BME280;26964;50.428;19.218;2023-04-28T01:41:34;1023.5;;;4.0;58.9
41230;BME280;26964;50.428;19.218;2023-04-28T01:42:33;1023.5;;;4.0;58.9
41230;BME280;26964;50.428;19.218;2023-04-28T01:43:34;1023.5;;;4.0;58.9
41230;BME280;26964;50.428;19.218;2023-04-28T01:44:34;1023.5;;;4.0;58.9
41230;BME280;26964;50.428;19.218;2023-04-28T01:45:33;1023.4;;;4.0;58.9
41230;BME280;26964;50.428;19.218;2023-04-28T01:46:33;1023.4;;;4.0;58.9
41230;BME280;26964;50.428;19.218;2023-04-28T01:47:33;1023.5;;;4.0;58.9
41230;BME280;26964;50.428;19.218;2023-04-28T01:48:34;1023.5;;;4.0;58.9
41230;BME280;26964;50.428;19.218;2023-04-28T01:49:35;1023.5;;;4.0;58.9
41230;BME280;26964;50.428;19.218;2023-04-28T01:50:34;1023.5;;;4.0;58.9
41230;BME280;26964;50.428;19.218;2023-04-28T01:51:34;1023.5;;;4.0;58.9
41230;BME280;26964;50.428;19.218;2023-04-28T01:52:34;1023.4;;;3.9;59.0
41230;BME280;26964;50.428;19.218;2023-04-28T01:54:34;1023.4;;;3.9;59.0
41230;BME280;26964;50.428;19.218;2023-04-28T01:55:34;1023.5;;;3.9;59.0
41230;BME280;26964;50.428;19.218;2023-04-28T01:56:33;1023.5;;;3.9;59.0
41230;BME280;26964;50.428;19.218;2023-04-28T01:57:34;1023.6;;;3.9;59.0
41230;BME280;26964;50.428;19.218;2023-04-28T01:58:33;1023.4;;;3.9;59.0
41230;BME280;26964;50.428;19.218;2023-04-28T01:59:34;1023.5;;;3.8;59.0
41230;BME280;26964;50.428;19.218;2023-04-28T02:00:33;1023.5;;;3.8;59.0
41230;BME280;26964;50.428;19.218;2023-04-28T02:01:34;1023.5;;;3.8;59.1
41230;BME280;26964;50.428;19.218;2023-04-28T02:02:34;1023.5;;;3.8;59.0
41230;BME280;26964;50.428;19.218;2023-04-28T02:03:34;1023.5;;;3.8;59.0
41230;BME280;26964;50.428;19.218;2023-04-28T02:04:34;1023.5;;;3.8;59.1
41230;BME280;26964;50.428;19.218;2023-04-28T02:05:34;1023.5;;;3.7;59.1
41230;BME280;26964;50.428;19.218;2023-04-28T02:06:34;1023.5;;;3.7;59.1
41230;BME280;26964;50.428;19.218;2023-04-28T02:07:33;1023.5;;;3.7;59.1
41230;BME280;26964;50.428;19.218;2023-04-28T02:08:34;1023.5;;;3.7;59.2
41230;BME280;26964;50.428;19.218;2023-04-28T02:09:34;1023.5;;;3.7;59.2
41230;BME280;26964;50.428;19.218;2023-04-28T02:10:34;1023.5;;;3.7;59.2
41230;BME280;26964;50.428;19.218;2023-04-28T02:11:34;1023.5;;;3.7;59.2
41230;BME280;26964;50.428;19.218;2023-04-28T02:12:34;1023.6;;;3.7;59.2
41230;BME280;26964;50.428;19.218;2023-04-28T02:13:34;1023.5;;;3.7;59.2
41230;BME280;26964;50.428;19.218;2023-04-28T02:14:34;1023.6;;;3.6;59.3
41230;BME280;26964;50.428;19.218;2023-04-28T02:16:34;1023.5;;;3.6;59.3
41230;BME280;26964;50.428;19.218;2023-04-28T02:17:33;1023.6;;;3.6;59.3
41230;BME280;26964;50.428;19.218;2023-04-28T02:18:33;1023.6;;;3.6;59.3
41230;BME280;26964;50.428;19.218;2023-04-28T02:19:34;1023.5;;;3.6;59.3
41230;BME280;26964;50.428;19.218;2023-04-28T02:20:34;1023.5;;;3.6;59.4
41230;BME280;26964;50.428;19.218;2023-04-28T02:21:34;1023.4;;;3.6;59.4
41230;BME280;26964;50.428;19.218;2023-04-28T02:22:34;1023.5;;;3.6;59.4
41230;BME280;26964;50.428;19.218;2023-04-28T02:23:34;1023.5;;;3.6;59.4
41230;BME280;26964;50.428;19.218;2023-04-28T02:24:34;1023.6;;;3.6;59.4
41230;BME280;26964;50.428;19.218;2023-04-28T02:25:34;1023.5;;;3.6;59.4
41230;BME280;26964;50.428;19.218;2023-04-28T02:26:33;1023.5;;;3.6;59.4
41230;BME280;26964;50.428;19.218;2023-04-28T02:28:33;1023.4;;;3.6;59.5
41230;BME280;26964;50.428;19.218;2023-04-28T02:29:33;1023.4;;;3.6;59.5
41230;BME280;26964;50.428;19.218;2023-04-28T02:30:34;1023.4;;;3.6;59.5
41230;BME280;26964;50.428;19.218;2023-04-28T02:31:34;1023.4;;;3.6;59.5
41230;BME280;26964;50.428;19.218;2023-04-28T02:32:33;1023.4;;;3.6;59.5
41230;BME280;26964;50.428;19.218;2023-04-28T02:33:34;1023.4;;;3.5;59.4
41230;BME280;26964;50.428;19.218;2023-04-28T02:34:34;1023.3;;;3.5;59.4
41230;BME280;26964;50.428;19.218;2023-04-28T02:35:33;1023.4;;;3.5;59.4
41230;BME280;26964;50.428;19.218;2023-04-28T02:36:34;1023.3;;;3.5;59.4
41230;BME280;26964;50.428;19.218;2023-04-28T02:37:33;1023.3;;;3.4;59.4
41230;BME280;26964;50.428;19.218;2023-04-28T02:38:33;1023.4;;;3.3;59.4
41230;BME280;26964;50.428;19.218;2023-04-28T02:39:34;1023.3;;;3.3;59.4
41230;BME280;26964;50.428;19.218;2023-04-28T02:40:33;1023.3;;;3.3;59.4
41230;BME280;26964;50.428;19.218;2023-04-28T02:41:34;1023.4;;;3.2;59.4
41230;BME280;26964;50.428;19.218;2023-04-28T02:42:34;1023.3;;;3.2;59.5
41230;BME280;26964;50.428;19.218;2023-04-28T02:43:38;1023.4;;;3.1;59.5
41230;BME280;26964;50.428;19.218;2023-04-28T02:44:34;1023.4;;;3.1;59.6
41230;BME280;26964;50.428;19.218;2023-04-28T02:45:34;1023.4;;;3.1;59.6
41230;BME280;26964;50.428;19.218;2023-04-28T02:46:34;1023.4;;;3.0;59.6
41230;BME280;26964;50.428;19.218;2023-04-28T02:47:34;1023.4;;;3.0;59.7
41230;BME280;26964;50.428;19.218;2023-04-28T02:48:33;1023.4;;;3.0;59.7
41230;BME280;26964;50.428;19.218;2023-04-28T02:49:34;1023.5;;;3.0;59.8
41230;BME280;26964;50.428;19.218;2023-04-28T02:50:33;1023.4;;;3.0;59.8
41230;BME280;26964;50.428;19.218;2023-04-28T02:51:33;1023.5;;;3.0;59.8
41230;BME280;26964;50.428;19.218;2023-04-28T02:52:34;1023.4;;;3.0;59.8
41230;BME280;26964;50.428;19.218;2023-04-28T02:53:33;1023.4;;;3.0;59.8
41230;BME280;26964;50.428;19.218;2023-04-28T02:54:33;1023.3;;;3.0;59.8
41230;BME280;26964;50.428;19.218;2023-04-28T02:55:34;1023.3;;;3.0;59.8
41230;BME280;26964;50.428;19.218;2023-04-28T02:56:33;1023.4;;;2.9;59.8
41230;BME280;26964;50.428;19.218;2023-04-28T02:57:34;1023.3;;;2.9;59.8
41230;BME280;26964;50.428;19.218;2023-04-28T02:58:34;1023.4;;;2.9;59.9
41230;BME280;26964;50.428;19.218;2023-04-28T02:59:33;1023.4;;;2.9;59.9
41230;BME280;26964;50.428;19.218;2023-04-28T03:00:34;1023.4;;;2.9;59.9
41230;BME280;26964;50.428;19.218;2023-04-28T03:01:34;1023.3;;;2.9;59.9
41230;BME280;26964;50.428;19.218;2023-04-28T03:02:33;1023.4;;;2.9;59.8
41230;BME280;26964;50.428;19.218;2023-04-28T03:03:34;1023.4;;;2.9;59.9
41230;BME280;26964;50.428;19.218;2023-04-28T03:04:34;1023.4;;;2.8;59.8
41230;BME280;26964;50.428;19.218;2023-04-28T03:05:33;1023.4;;;2.8;59.9
41230;BME280;26964;50.428;19.218;2023-04-28T03:06:34;1023.5;;;2.8;59.9
41230;BME280;26964;50.428;19.218;2023-04-28T03:07:34;1023.4;;;2.8;59.9
41230;BME280;26964;50.428;19.218;2023-04-28T03:08:34;1023.3;;;2.8;59.9
41230;BME280;26964;50.428;19.218;2023-04-28T03:09:33;1023.4;;;2.8;59.9
41230;BME280;26964;50.428;19.218;2023-04-28T03:10:34;1023.4;;;2.7;59.9
41230;BME280;26964;50.428;19.218;2023-04-28T03:11:34;1023.2;;;2.7;59.9
41230;BME280;26964;50.428;19.218;2023-04-28T03:12:34;1023.2;;;2.7;59.9
41230;BME280;26964;50.428;19.218;2023-04-28T03:13:33;1023.3;;;2.7;59.9
41230;BME280;26964;50.428;19.218;2023-04-28T03:14:34;1023.3;;;2.7;59.9
41230;BME280;26964;50.428;19.218;2023-04-28T03:15:34;1023.3;;;2.6;59.9
41230;BME280;26964;50.428;19.218;2023-04-28T03:16:34;1023.3;;;2.6;59.9
41230;BME280;26964;50.428;19.218;2023-04-28T03:17:33;1023.3;;;2.6;59.9
41230;BME280;26964;50.428;19.218;2023-04-28T03:18:34;1023.3;;;2.5;59.9
41230;BME280;26964;50.428;19.218;2023-04-28T03:19:34;1023.3;;;2.5;59.9
41230;BME280;26964;50.428;19.218;2023-04-28T03:20:34;1023.3;;;2.5;60.0
41230;BME280;26964;50.428;19.218;2023-04-28T03:21:34;1023.3;;;2.4;60.0
41230;BME280;26964;50.428;19.218;2023-04-28T03:22:33;1023.3;;;2.4;60.0
41230;BME280;26964;50.428;19.218;2023-04-28T03:23:34;1023.3;;;2.4;60.0
41230;BME280;26964;50.428;19.218;2023-04-28T03:24:33;1023.3;;;2.4;60.0
41230;BME280;26964;50.428;19.218;2023-04-28T03:25:34;1023.4;;;2.3;60.0
41230;BME280;26964;50.428;19.218;2023-04-28T03:26:33;1023.4;;;2.3;60.1
41230;BME280;26964;50.428;19.218;2023-04-28T03:27:34;1023.3;;;2.3;60.1
41230;BME280;26964;50.428;19.218;2023-04-28T03:28:34;1023.3;;;2.2;60.1
41230;BME280;26964;50.428;19.218;2023-04-28T03:29:34;1023.3;;;2.2;60.1
41230;BME280;26964;50.428;19.218;2023-04-28T03:30:33;1023.3;;;2.2;60.2
41230;BME280;26964;50.428;19.218;2023-04-28T03:31:58;1023.3;;;2.1;60.2
41230;BME280;26964;50.428;19.218;2023-04-28T03:32:34;1023.2;;;2.1;60.2
41230;BME280;26964;50.428;19.218;2023-04-28T03:33:34;1023.3;;;2.1;60.2
41230;BME280;26964;50.428;19.218;2023-04-28T03:34:34;1023.3;;;2.0;60.2
41230;BME280;26964;50.428;19.218;2023-04-28T03:35:34;1023.3;;;2.0;60.2
41230;BME280;26964;50.428;19.218;2023-04-28T03:36:34;1023.3;;;2.0;60.3
41230;BME280;26964;50.428;19.218;2023-04-28T03:37:34;1023.4;;;2.0;60.3
41230;BME280;26964;50.428;19.218;2023-04-28T03:38:34;1023.3;;;1.9;60.3
41230;BME280;26964;50.428;19.218;2023-04-28T03:39:33;1023.4;;;1.9;60.4
41230;BME280;26964;50.428;19.218;2023-04-28T03:40:34;1023.3;;;1.9;60.4
41230;BME280;26964;50.428;19.218;2023-04-28T03:41:34;1023.4;;;1.9;60.4
41230;BME280;26964;50.428;19.218;2023-04-28T03:42:34;1023.3;;;1.9;60.5
41230;BME280;26964;50.428;19.218;2023-04-28T03:43:34;1023.3;;;1.9;60.5
41230;BME280;26964;50.428;19.218;2023-04-28T03:44:34;1023.4;;;1.9;60.5
41230;BME280;26964;50.428;19.218;2023-04-28T03:45:33;1023.3;;;1.9;60.5
41230;BME280;26964;50.428;19.218;2023-04-28T03:46:34;1023.4;;;1.9;60.5
41230;BME280;26964;50.428;19.218;2023-04-28T03:47:34;1023.3;;;1.9;60.5
41230;BME280;26964;50.428;19.218;2023-04-28T03:48:34;1023.3;;;1.8;60.5
41230;BME280;26964;50.428;19.218;2023-04-28T03:49:33;1023.3;;;1.8;60.5
41230;BME280;26964;50.428;19.218;2023-04-28T03:50:33;1023.3;;;1.8;60.5
41230;BME280;26964;50.428;19.218;2023-04-28T03:51:34;1023.4;;;1.8;60.5
41230;BME280;26964;50.428;19.218;2023-04-28T03:52:34;1023.3;;;1.8;60.6
41230;BME280;26964;50.428;19.218;2023-04-28T03:53:34;1023.4;;;1.8;60.6
41230;BME280;26964;50.428;19.218;2023-04-28T03:54:34;1023.2;;;1.8;60.7
41230;BME280;26964;50.428;19.218;2023-04-28T03:55:33;1023.4;;;1.8;60.7
41230;BME280;26964;50.428;19.218;2023-04-28T03:56:33;1023.3;;;1.8;60.8
41230;BME280;26964;50.428;19.218;2023-04-28T03:57:34;1023.4;;;1.8;60.8
41230;BME280;26964;50.428;19.218;2023-04-28T03:58:33;1023.3;;;1.8;60.8
41230;BME280;26964;50.428;19.218;2023-04-28T03:59:34;1023.3;;;1.8;60.8
41230;BME280;26964;50.428;19.218;2023-04-28T04:00:34;1023.3;;;1.8;60.8
41230;BME280;26964;50.428;19.218;2023-04-28T04:01:34;1023.3;;;1.8;60.8
41230;BME280;26964;50.428;19.218;2023-04-28T04:02:33;1023.3;;;1.7;60.8
41230;BME280;26964;50.428;19.218;2023-04-28T04:03:34;1023.3;;;1.7;60.8
41230;BME280;26964;50.428;19.218;2023-04-28T04:04:34;1023.3;;;1.7;60.8
41230;BME280;26964;50.428;19.218;2023-04-28T04:05:34;1023.3;;;1.7;60.9
41230;BME280;26964;50.428;19.218;2023-04-28T04:06:33;1023.3;;;1.7;60.9
41230;BME280;26964;50.428;19.218;2023-04-28T04:08:33;1023.3;;;1.7;61.0
41230;BME280;26964;50.428;19.218;2023-04-28T04:09:47;1023.4;;;1.7;61.0
41230;BME280;26964;50.428;19.218;2023-04-28T04:10:34;1023.3;;;1.8;61.1
41230;BME280;26964;50.428;19.218;2023-04-28T04:11:34;1023.3;;;1.8;61.1
41230;BME280;26964;50.428;19.218;2023-04-28T04:12:34;1023.4;;;1.8;61.1
41230;BME280;26964;50.428;19.218;2023-04-28T04:13:34;1023.4;;;1.8;61.1
41230;BME280;26964;50.428;19.218;2023-04-28T04:14:34;1023.4;;;1.8;61.1
41230;BME280;26964;50.428;19.218;2023-04-28T04:15:34;1023.5;;;1.8;61.2
41230;BME280;26964;50.428;19.218;2023-04-28T04:16:34;1023.4;;;1.8;61.2
41230;BME280;26964;50.428;19.218;2023-04-28T04:17:33;1023.4;;;1.8;61.2
41230;BME280;26964;50.428;19.218;2023-04-28T04:18:33;1023.4;;;1.9;61.2
41230;BME280;26964;50.428;19.218;2023-04-28T04:19:33;1023.4;;;1.9;61.2
41230;BME280;26964;50.428;19.218;2023-04-28T04:20:34;1023.4;;;1.9;61.2
41230;BME280;26964;50.428;19.218;2023-04-28T04:21:34;1023.4;;;1.9;61.3
41230;BME280;26964;50.428;19.218;2023-04-28T04:22:34;1023.3;;;2.0;61.3
41230;BME280;26964;50.428;19.218;2023-04-28T04:23:34;1023.3;;;2.0;61.3
41230;BME280;26964;50.428;19.218;2023-04-28T04:24:34;1023.4;;;2.0;61.3
41230;BME280;26964;50.428;19.218;2023-04-28T04:25:34;1023.4;;;2.0;61.3
41230;BME280;26964;50.428;19.218;2023-04-28T04:26:34;1023.4;;;2.0;61.3
41230;BME280;26964;50.428;19.218;2023-04-28T04:27:33;1023.4;;;2.0;61.3
41230;BME280;26964;50.428;19.218;2023-04-28T04:28:33;1023.4;;;2.1;61.4
41230;BME280;26964;50.428;19.218;2023-04-28T04:29:33;1023.4;;;2.1;61.3
41230;BME280;26964;50.428;19.218;2023-04-28T04:30:33;1023.5;;;2.1;61.4
41230;BME280;26964;50.428;19.218;2023-04-28T04:31:33;1023.4;;;2.2;61.4
41230;BME280;26964;50.428;19.218;2023-04-28T04:32:33;1023.5;;;2.2;61.4
41230;BME280;26964;50.428;19.218;2023-04-28T04:33:34;1023.4;;;2.2;61.4
41230;BME280;26964;50.428;19.218;2023-04-28T04:34:34;1023.5;;;2.2;61.4
41230;BME280;26964;50.428;19.218;2023-04-28T04:35:33;1023.4;;;2.3;61.4
41230;BME280;26964;50.428;19.218;2023-04-28T04:36:34;1023.4;;;2.3;61.5
41230;BME280;26964;50.428;19.218;2023-04-28T04:37:34;1023.5;;;2.3;61.5
41230;BME280;26964;50.428;19.218;2023-04-28T04:38:34;1023.5;;;2.3;61.5
41230;BME280;26964;50.428;19.218;2023-04-28T04:39:34;1023.4;;;2.4;61.5
41230;BME280;26964;50.428;19.218;2023-04-28T04:40:33;1023.5;;;2.4;61.5
41230;BME280;26964;50.428;19.218;2023-04-28T04:41:34;1023.5;;;2.5;61.5
41230;BME280;26964;50.428;19.218;2023-04-28T04:42:33;1023.4;;;2.5;61.5
41230;BME280;26964;50.428;19.218;2023-04-28T04:43:34;1023.5;;;2.5;61.6
41230;BME280;26964;50.428;19.218;2023-04-28T04:44:34;1023.5;;;2.5;61.6
41230;BME280;26964;50.428;19.218;2023-04-28T04:45:34;1023.6;;;2.6;61.6
41230;BME280;26964;50.428;19.218;2023-04-28T04:46:34;1023.5;;;2.6;61.6
41230;BME280;26964;50.428;19.218;2023-04-28T04:47:34;1023.5;;;2.7;61.6
41230;BME280;26964;50.428;19.218;2023-04-28T04:48:34;1023.5;;;2.7;61.6
41230;BME280;26964;50.428;19.218;2023-04-28T04:49:34;1023.5;;;2.8;61.6
41230;BME280;26964;50.428;19.218;2023-04-28T04:50:34;1023.4;;;2.8;61.6
41230;BME280;26964;50.428;19.218;2023-04-28T04:51:33;1023.5;;;2.9;61.6
41230;BME280;26964;50.428;19.218;2023-04-28T04:52:34;1023.6;;;2.9;61.6
41230;BME280;26964;50.428;19.218;2023-04-28T04:53:34;1023.5;;;2.9;61.6
41230;BME280;26964;50.428;19.218;2023-04-28T04:54:34;1023.5;;;3.0;61.6
41230;BME280;26964;50.428;19.218;2023-04-28T04:55:33;1023.6;;;3.0;61.6
41230;BME280;26964;50.428;19.218;2023-04-28T04:56:34;1023.5;;;3.1;61.6
41230;BME280;26964;50.428;19.218;2023-04-28T04:57:34;1023.5;;;3.1;61.6
41230;BME280;26964;50.428;19.218;2023-04-28T04:58:34;1023.5;;;3.2;61.6
41230;BME280;26964;50.428;19.218;2023-04-28T04:59:34;1023.5;;;3.2;61.6
41230;BME280;26964;50.428;19.218;2023-04-28T05:00:33;1023.5;;;3.3;61.6
41230;BME280;26964;50.428;19.218;2023-04-28T05:01:34;1023.6;;;3.3;61.6
41230;BME280;26964;50.428;19.218;2023-04-28T05:02:33;1023.6;;;3.4;61.6
41230;BME280;26964;50.428;19.218;2023-04-28T05:03:34;1023.5;;;3.4;61.7
41230;BME280;26964;50.428;19.218;2023-04-28T05:04:34;1023.6;;;3.5;61.7
41230;BME280;26964;50.428;19.218;2023-04-28T05:07:33;1023.5;;;3.6;61.7
41230;BME280;26964;50.428;19.218;2023-04-28T05:08:33;1023.5;;;3.7;61.7
41230;BME280;26964;50.428;19.218;2023-04-28T05:09:33;1023.6;;;3.7;61.7
41230;BME280;26964;50.428;19.218;2023-04-28T05:10:34;1023.6;;;3.8;61.7
41230;BME280;26964;50.428;19.218;2023-04-28T05:11:33;1023.6;;;3.8;61.6
41230;BME280;26964;50.428;19.218;2023-04-28T05:12:34;1023.5;;;3.8;61.6
41230;BME280;26964;50.428;19.218;2023-04-28T05:13:33;1023.6;;;3.9;61.7
41230;BME280;26964;50.428;19.218;2023-04-28T05:14:34;1023.6;;;4.0;61.7
41230;BME280;26964;50.428;19.218;2023-04-28T05:15:33;1023.6;;;4.0;61.7
41230;BME280;26964;50.428;19.218;2023-04-28T05:16:34;1023.6;;;4.0;61.7
41230;BME280;26964;50.428;19.218;2023-04-28T05:17:33;1023.6;;;4.1;61.7
41230;BME280;26964;50.428;19.218;2023-04-28T05:18:34;1023.6;;;4.1;61.7
41230;BME280;26964;50.428;19.218;2023-04-28T05:19:34;1023.6;;;4.2;61.7
41230;BME280;26964;50.428;19.218;2023-04-28T05:20:34;1023.5;;;4.2;61.7
41230;BME280;26964;50.428;19.218;2023-04-28T05:21:33;1023.6;;;4.3;61.7
41230;BME280;26964;50.428;19.218;2023-04-28T05:22:34;1023.6;;;4.3;61.7
41230;BME280;26964;50.428;19.218;2023-04-28T05:23:34;1023.5;;;4.3;61.7
41230;BME280;26964;50.428;19.218;2023-04-28T05:24:33;1023.6;;;4.4;61.7
41230;BME280;26964;50.428;19.218;2023-04-28T05:25:33;1023.6;;;4.4;61.6
41230;BME280;26964;50.428;19.218;2023-04-28T05:26:33;1023.6;;;4.4;61.6
41230;BME280;26964;50.428;19.218;2023-04-28T05:27:34;1023.6;;;4.5;61.6
41230;BME280;26964;50.428;19.218;2023-04-28T05:28:34;1023.6;;;4.5;61.5
41230;BME280;26964;50.428;19.218;2023-04-28T05:29:34;1023.5;;;4.6;61.5
41230;BME280;26964;50.428;19.218;2023-04-28T05:30:33;1023.6;;;4.6;61.5
41230;BME280;26964;50.428;19.218;2023-04-28T05:31:33;1023.6;;;4.7;61.4
41230;BME280;26964;50.428;19.218;2023-04-28T05:32:33;1023.6;;;4.7;61.4
41230;BME280;26964;50.428;19.218;2023-04-28T05:33:34;1023.6;;;4.7;61.4
41230;BME280;26964;50.428;19.218;2023-04-28T05:34:34;1023.6;;;4.7;61.4
41230;BME280;26964;50.428;19.218;2023-04-28T05:35:33;1023.6;;;4.8;61.3
41230;BME280;26964;50.428;19.218;2023-04-28T05:36:34;1023.5;;;4.8;61.3
41230;BME280;26964;50.428;19.218;2023-04-28T05:37:34;1023.5;;;4.8;61.3
41230;BME280;26964;50.428;19.218;2023-04-28T05:38:33;1023.5;;;4.9;61.3
41230;BME280;26964;50.428;19.218;2023-04-28T05:39:34;1023.6;;;4.9;61.2
41230;BME280;26964;50.428;19.218;2023-04-28T05:40:34;1023.5;;;4.9;61.2
41230;BME280;26964;50.428;19.218;2023-04-28T05:41:34;1023.5;;;5.0;61.2
41230;BME280;26964;50.428;19.218;2023-04-28T05:42:34;1023.5;;;5.0;61.3
41230;BME280;26964;50.428;19.218;2023-04-28T05:43:34;1023.5;;;5.0;61.2